Time;durP1;ratioP1;P1;durP2;ratioP2;P2;SDS_P1;SDS_P2;PMS_P1;PMS_P2;Temp;Humidity;BMP_temperature;BMP_pressure;BME280_temperature;BME280_humidity;BME280_pressure;Samples;Min_cycle;Max_cycle;Signal;HPM_P1;HPM_P2
2024/01/24 00:02:21;;;;;;;0.43;0.30;;;;;;;18.87;64.77;101258.69;5052720;28;20029;-76
2024/01/24 00:04:47;;;;;;;1.13;0.30;;;;;;;19.17;64.05;101248.72;5053089;28;20039;-76
2024/01/24 00:07:12;;;;;;;1.65;0.40;;;;;;;18.24;66.69;101256.56;5052623;28;20555;-76
2024/01/24 00:09:37;;;;;;;0.40;0.40;;;;;;;19.17;63.31;101259.31;5052624;28;20033;-75
2024/01/24 00:12:03;;;;;;;0.88;0.32;;;;;;;19.37;63.07;101286.81;5052847;28;20385;-75
2024/01/24 00:14:29;;;;;;;2.53;0.35;;;;;;;19.06;66.15;101275.63;5052550;28;20028;-76
2024/01/24 00:16:54;;;;;;;0.38;0.38;;;;;;;18.27;68.74;101267.91;5052655;28;20127;-75
2024/01/24 00:19:20;;;;;;;1.75;0.52;;;;;;;18.44;68.56;101296.41;5052779;28;20121;-76
2024/01/24 00:21:45;;;;;;;1.08;0.93;;;;;;;18.40;68.02;101272.75;5052495;28;20120;-76
2024/01/24 00:24:11;;;;;;;2.05;0.57;;;;;;;19.25;65.55;101294.34;5052656;28;20025;-76
2024/01/24 00:26:37;;;;;;;1.33;0.50;;;;;;;19.37;64.92;101281.50;5052460;28;20078;-77
2024/01/24 00:29:03;;;;;;;3.65;1.13;;;;;;;18.70;69.01;101296.38;5052693;28;20112;-77
2024/01/24 00:31:32;;;;;;;1.08;0.60;;;;;;;19.35;65.52;101289.53;5052084;28;20151;-76
2024/01/24 00:33:57;;;;;;;2.40;0.60;;;;;;;18.38;67.72;101275.47;5052411;28;20021;-77
2024/01/24 00:36:23;;;;;;;4.00;1.02;;;;;;;18.75;68.73;101302.38;5051561;28;20086;-78
2024/01/24 00:38:48;;;;;;;2.33;0.52;;;;;;;18.98;66.31;101285.66;5050809;28;20466;-77
2024/01/24 00:41:14;;;;;;;2.15;0.63;;;;;;;18.20;70.48;101297.28;5051348;28;20028;-78
2024/01/24 00:43:39;;;;;;;2.13;0.60;;;;;;;19.05;67.85;101291.59;5051314;28;20469;-77
2024/01/24 00:46:05;;;;;;;0.93;0.60;;;;;;;18.62;69.20;101315.22;5051937;28;20021;-77
2024/01/24 00:48:30;;;;;;;2.72;0.85;;;;;;;18.19;70.47;101300.81;5051870;28;20021;-78
2024/01/24 00:50:55;;;;;;;2.70;0.93;;;;;;;18.92;67.40;101312.38;5052344;28;20098;-78
2024/01/24 00:53:21;;;;;;;0.68;0.60;;;;;;;18.14;70.81;101299.19;5052132;28;20047;-76
2024/01/24 00:55:47;;;;;;;1.70;0.73;;;;;;;18.79;68.25;101322.53;5052063;28;20094;-77
2024/01/24 00:58:12;;;;;;;4.13;0.60;;;;;;;18.30;70.92;101346.31;5052285;28;20108;-79
2024/01/24 01:00:38;;;;;;;3.88;0.75;;;;;;;18.31;72.69;101354.22;5051740;28;20457;-77
2024/01/24 01:03:04;;;;;;;1.20;0.75;;;;;;;19.25;66.78;101304.06;5053170;28;20029;-77
2024/01/24 01:05:29;;;;;;;1.52;0.60;;;;;;;18.78;69.48;101321.66;5048524;28;20024;-78
2024/01/24 01:07:55;;;;;;;1.83;0.50;;;;;;;18.47;69.80;101312.16;5033556;28;20094;-77
2024/01/24 01:10:20;;;;;;;0.52;0.52;;;;;;;18.40;70.88;101313.31;5032302;28;20076;-80
2024/01/24 01:12:45;;;;;;;3.28;0.57;;;;;;;18.20;72.57;101321.09;5039932;28;20481;-81
2024/01/24 01:15:11;;;;;;;0.95;0.70;;;;;;;18.41;72.16;101322.09;5052199;28;20388;-80
2024/01/24 01:17:36;;;;;;;5.10;0.88;;;;;;;18.69;69.56;101316.69;5051856;28;20530;-80
2024/01/24 01:20:03;;;;;;;1.60;0.90;;;;;;;18.78;70.11;101305.78;5051273;28;20025;-79
2024/01/24 01:22:29;;;;;;;4.32;0.77;;;;;;;19.30;66.97;101275.59;5050797;28;20017;-80
2024/01/24 01:24:54;;;;;;;0.47;0.43;;;;;;;18.70;68.74;101291.97;5050863;28;20446;-80
2024/01/24 01:27:20;;;;;;;1.75;0.60;;;;;;;18.06;71.93;101301.25;5050735;28;20043;-79
2024/01/24 01:29:45;;;;;;;0.47;0.47;;;;;;;18.09;70.53;101285.28;5051327;28;20059;-80
2024/01/24 01:32:10;;;;;;;0.40;0.40;;;;;;;18.03;71.63;101316.38;5051958;28;20380;-78
2024/01/24 01:34:36;;;;;;;2.40;0.80;;;;;;;18.26;69.70;101320.88;5050454;28;20139;-81
2024/01/24 01:37:01;;;;;;;4.13;1.02;;;;;;;18.94;66.05;101274.31;5052476;28;20028;-79
2024/01/24 01:39:28;;;;;;;2.03;0.50;;;;;;;18.33;68.40;101272.13;5051253;28;20484;-78
2024/01/24 01:41:53;;;;;;;2.55;0.60;;;;;;;18.65;66.13;101280.66;5051063;28;20025;-77
2024/01/24 01:44:19;;;;;;;3.35;0.60;;;;;;;18.41;67.96;101270.06;5051432;28;20028;-80
2024/01/24 01:46:45;;;;;;;5.68;0.75;;;;;;;18.93;66.53;101279.66;5051384;28;20013;-77
2024/01/24 01:49:11;;;;;;;5.35;0.68;;;;;;;18.86;64.41;101254.31;5048184;28;20038;-79
2024/01/24 01:51:37;;;;;;;4.85;1.15;;;;;;;18.51;67.34;101290.91;5043510;28;20031;-78
2024/01/24 01:54:03;;;;;;;2.60;0.70;;;;;;;18.58;66.55;101284.47;5051578;28;20123;-80
2024/01/24 01:56:31;;;;;;;5.95;1.30;;;;;;;18.84;64.75;101272.91;5051490;28;20032;-78
2024/01/24 01:58:58;;;;;;;3.78;1.50;;;;;;;18.82;63.76;101280.91;5051513;28;20017;-79
2024/01/24 02:01:23;;;;;;;5.55;0.77;;;;;;;18.97;63.66;101306.00;5051323;28;20041;-79
2024/01/24 02:03:49;;;;;;;4.70;1.02;;;;;;;18.87;64.24;101274.59;5051697;28;20021;-78
2024/01/24 02:06:14;;;;;;;7.75;2.65;;;;;;;19.40;61.32;101286.69;5051088;28;20032;-79
2024/01/24 02:08:40;;;;;;;7.03;1.15;;;;;;;18.64;62.65;101269.22;5050729;28;20025;-79
2024/01/24 02:11:06;;;;;;;2.30;0.73;;;;;;;18.54;64.83;101272.25;5051230;28;20087;-78
2024/01/24 02:13:32;;;;;;;6.65;0.88;;;;;;;18.56;64.96;101299.53;5050957;28;20021;-77
2024/01/24 02:16:03;;;;;;;7.00;0.68;;;;;;;18.48;65.78;101290.09;5051458;28;20028;-78
2024/01/24 02:18:31;;;;;;;5.95;0.65;;;;;;;19.29;61.37;101301.25;5050503;28;20078;-77
2024/01/24 02:20:57;;;;;;;3.80;0.47;;;;;;;18.90;61.84;101324.81;5050822;28;20040;-78
2024/01/24 02:23:25;;;;;;;7.18;0.60;;;;;;;18.69;63.20;101308.75;5051090;28;20120;-78
2024/01/24 02:25:52;;;;;;;2.75;0.57;;;;;;;18.20;65.93;101303.41;5050543;28;20079;-77
2024/01/24 02:28:18;;;;;;;3.95;0.80;;;;;;;19.39;59.75;101301.72;5051548;28;20082;-77
2024/01/24 02:30:44;;;;;;;4.18;0.75;;;;;;;19.13;60.19;101322.16;5054240;28;20369;-78
2024/01/24 02:33:09;;;;;;;3.58;0.80;;;;;;;19.88;58.90;101327.22;5054794;28;20025;-77
2024/01/24 02:35:35;;;;;;;3.53;0.70;;;;;;;18.45;62.66;101313.13;5054457;28;20063;-78
2024/01/24 02:38:01;;;;;;;5.13;0.70;;;;;;;17.75;66.82;101331.31;5054222;28;20091;-77
2024/01/24 02:40:26;;;;;;;3.00;0.28;;;;;;;18.04;64.44;101291.63;5053929;28;20400;-77
2024/01/24 02:42:52;;;;;;;5.38;0.77;;;;;;;18.53;62.33;101310.22;5053231;28;20020;-78
2024/01/24 02:45:17;;;;;;;4.57;1.05;;;;;;;18.61;62.92;101326.72;5053960;28;20451;-78
2024/01/24 02:47:42;;;;;;;3.05;0.60;;;;;;;18.61;61.43;101324.06;5052901;28;20544;-77
2024/01/24 02:50:08;;;;;;;2.25;0.55;;;;;;;18.54;61.86;101343.72;5053513;28;20501;-77
2024/01/24 02:52:34;;;;;;;7.25;1.33;;;;;;;18.14;63.71;101323.00;5053746;28;20115;-79
2024/01/24 02:54:59;;;;;;;7.15;1.63;;;;;;;18.44;61.37;101354.63;5054162;28;20142;-77
2024/01/24 02:57:25;;;;;;;7.63;1.07;;;;;;;17.71;63.61;101327.06;5053907;28;20063;-78
2024/01/24 02:59:50;;;;;;;5.38;1.27;;;;;;;18.37;61.33;101316.06;5053120;28;20056;-77
2024/01/24 03:02:16;;;;;;;2.10;1.23;;;;;;;18.56;59.89;101323.34;5050976;28;20018;-78
2024/01/24 03:04:41;;;;;;;9.48;1.58;;;;;;;18.61;60.41;101350.53;5050778;28;20426;-78
2024/01/24 03:07:07;;;;;;;7.43;1.40;;;;;;;18.67;59.09;101345.03;5054829;28;20029;-77
2024/01/24 03:09:32;;;;;;;6.68;1.20;;;;;;;18.03;60.76;101333.09;5053776;28;20464;-78
2024/01/24 03:11:57;;;;;;;14.80;2.08;;;;;;;19.09;57.87;101331.13;5053793;28;20025;-78
2024/01/24 03:14:24;;;;;;;2.53;1.10;;;;;;;18.02;61.54;101355.16;5054535;28;20090;-78
2024/01/24 03:16:50;;;;;;;6.25;0.98;;;;;;;18.23;61.15;101342.13;5053362;28;20044;-77
2024/01/24 03:19:15;;;;;;;7.53;1.27;;;;;;;18.33;60.37;101356.78;5054333;28;20469;-76
2024/01/24 03:21:41;;;;;;;11.07;1.73;;;;;;;17.65;60.21;101353.66;5052861;28;20032;-79
2024/01/24 03:24:06;;;;;;;10.55;1.33;;;;;;;18.74;58.50;101341.25;5053359;28;20496;-76
2024/01/24 03:26:32;;;;;;;8.38;1.45;;;;;;;18.34;58.22;101332.06;5052588;28;20036;-76
2024/01/24 03:28:58;;;;;;;10.20;1.50;;;;;;;17.78;60.71;101370.88;5052754;28;20485;-77
2024/01/24 03:31:23;;;;;;;21.13;1.87;;;;;;;18.11;60.07;101373.38;5050270;28;20033;-77
2024/01/24 03:33:49;;;;;;;8.83;1.77;;;;;;;18.26;59.07;101360.56;5038081;28;20392;-77
2024/01/24 03:36:14;;;;;;;6.23;1.63;;;;;;;18.53;57.37;101365.81;5052970;28;20020;-77
2024/01/24 03:38:39;;;;;;;7.37;1.23;;;;;;;18.08;58.59;101347.03;5052758;28;20048;-76
2024/01/24 03:41:05;;;;;;;10.43;1.10;;;;;;;18.74;55.80;101367.72;5052714;28;20066;-76
2024/01/24 03:43:30;;;;;;;16.40;2.47;;;;;;;18.06;57.21;101393.81;5052550;28;20024;-77
2024/01/24 03:45:56;;;;;;;12.60;1.80;;;;;;;18.09;56.35;101363.75;5052978;28;20052;-76
2024/01/24 03:48:21;;;;;;;10.90;2.00;;;;;;;17.73;57.89;101351.66;5053370;28;20562;-77
2024/01/24 03:50:46;;;;;;;10.97;2.20;;;;;;;17.69;58.43;101355.31;5054265;28;20639;-78
2024/01/24 03:53:12;;;;;;;11.90;2.60;;;;;;;18.54;55.54;101365.75;5054201;28;20539;-77
2024/01/24 03:55:37;;;;;;;12.17;1.83;;;;;;;17.84;57.90;101380.38;5053554;28;20029;-76
2024/01/24 03:58:03;;;;;;;15.07;2.43;;;;;;;17.38;58.00;101356.25;5052273;28;20171;-77
2024/01/24 04:00:31;;;;;;;18.33;2.40;;;;;;;18.30;55.48;101388.66;5054083;28;20032;-77
2024/01/24 04:02:57;;;;;;;6.00;1.13;;;;;;;17.80;56.16;101376.13;5053797;28;20610;-77
2024/01/24 04:05:22;;;;;;;14.77;2.67;;;;;;;17.99;55.06;101381.72;5052525;28;20146;-77
2024/01/24 04:07:47;;;;;;;13.60;2.07;;;;;;;17.84;54.86;101388.31;5052399;28;20110;-76
2024/01/24 04:10:13;;;;;;;22.03;2.23;;;;;;;17.31;56.69;101386.44;5053699;28;20027;-77
2024/01/24 04:12:38;;;;;;;14.30;1.37;;;;;;;18.33;54.25;101393.84;5051989;28;20032;-76
2024/01/24 04:15:06;;;;;;;19.23;2.07;;;;;;;17.87;55.07;101419.94;5053490;28;20029;-76
2024/01/24 04:17:31;;;;;;;21.33;3.13;;;;;;;17.71;54.05;101392.25;5051759;28;20504;-78
2024/01/24 04:19:57;;;;;;;11.73;2.17;;;;;;;17.65;54.83;101395.97;5048825;28;20065;-77
2024/01/24 04:22:22;;;;;;;21.30;2.67;;;;;;;17.61;55.19;101371.41;5036623;28;20039;-76
2024/01/24 04:24:48;;;;;;;15.53;2.23;;;;;;;17.99;54.48;101405.53;5051207;28;20312;-76
2024/01/24 04:27:14;;;;;;;12.70;2.07;;;;;;;17.90;55.17;101403.13;5053576;28;20044;-77
2024/01/24 04:29:42;;;;;;;21.33;3.43;;;;;;;17.61;55.01;101429.56;5053090;28;20024;-77
2024/01/24 04:32:07;;;;;;;18.97;2.93;;;;;;;17.41;54.94;101419.56;5068752;28;20338;-76
2024/01/24 04:34:33;;;;;;;19.93;2.67;;;;;;;17.45;54.07;101413.28;5051767;28;20029;-77
2024/01/24 04:36:58;;;;;;;18.03;2.43;;;;;;;17.55;51.63;101431.53;5052236;28;20020;-77
2024/01/24 04:39:23;;;;;;;17.90;2.53;;;;;;;17.51;52.54;101429.88;5050916;28;20434;-77
2024/01/24 04:41:49;;;;;;;23.27;3.30;;;;;;;18.72;49.51;101422.50;5051955;28;20032;-77
2024/01/24 04:44:15;;;;;;;20.67;4.33;;;;;;;17.95;50.66;101438.28;5051629;28;20111;-76
2024/01/24 04:46:40;;;;;;;19.53;2.43;;;;;;;17.79;50.80;101446.66;5050776;28;20431;-76
2024/01/24 04:49:07;;;;;;;20.37;2.63;;;;;;;17.70;50.31;101452.22;5051573;28;20063;-77
2024/01/24 04:51:33;;;;;;;26.70;2.80;;;;;;;17.68;50.97;101461.97;5049292;28;20801;-77
2024/01/24 04:53:58;;;;;;;13.87;2.00;;;;;;;17.58;51.06;101457.84;5052003;28;20032;-76
2024/01/24 04:56:23;;;;;;;19.23;2.67;;;;;;;17.98;50.64;101475.19;5051433;28;20020;-76
2024/01/24 04:58:49;;;;;;;17.50;2.00;;;;;;;17.25;50.33;101485.19;5051860;28;20453;-76
2024/01/24 05:01:14;;;;;;;30.53;4.23;;;;;;;17.22;50.25;101487.94;5051250;28;20099;-76
2024/01/24 05:03:40;;;;;;;19.23;2.63;;;;;;;18.11;48.71;101495.06;5050929;28;20472;-76
2024/01/24 05:06:06;;;;;;;9.50;1.67;;;;;;;18.30;48.48;101483.91;5052105;28;20075;-77
2024/01/24 05:08:31;;;;;;;16.50;2.83;;;;;;;17.58;49.37;101473.72;5051680;28;20029;-75
2024/01/24 05:10:56;;;;;;;15.30;2.50;;;;;;;18.32;47.57;101482.06;5050598;28;20021;-76
2024/01/24 05:13:22;;;;;;;23.77;3.03;;;;;;;17.98;47.97;101456.69;5052060;28;20029;-78
2024/01/24 05:15:49;;;;;;;24.13;3.00;;;;;;;17.51;50.52;101472.16;5051728;28;20033;-75
2024/01/24 05:18:15;;;;;;;20.20;2.33;;;;;;;17.33;50.36;101466.50;5051330;28;20863;-76
2024/01/24 05:20:40;;;;;;;29.47;3.80;;;;;;;17.44;50.08;101458.25;5050069;28;20120;-75
2024/01/24 05:23:07;;;;;;;22.83;3.17;;;;;;;17.43;49.90;101464.44;5050788;28;20495;-74
2024/01/24 05:25:32;;;;;;;26.13;3.87;;;;;;;18.17;49.10;101461.41;5051459;28;20052;-75
2024/01/24 05:27:59;;;;;;;24.93;3.23;;;;;;;17.12;50.11;101479.38;5047043;28;20071;-75
2024/01/24 05:30:25;;;;;;;18.77;4.87;;;;;;;17.12;50.72;101489.09;5030835;28;20027;-75
2024/01/24 05:32:51;;;;;;;25.40;3.60;;;;;;;17.28;49.35;101487.78;5046635;28;20029;-75
2024/01/24 05:35:16;;;;;;;27.93;3.37;;;;;;;16.77;50.03;101502.28;5031767;28;20021;-75
2024/01/24 05:37:42;;;;;;;30.83;3.27;;;;;;;17.26;48.22;101508.06;5061870;28;20530;-74
2024/01/24 05:40:08;;;;;;;24.03;3.23;;;;;;;17.11;48.33;101522.53;5052306;28;20557;-76
2024/01/24 05:42:34;;;;;;;14.23;2.83;;;;;;;17.65;47.26;101538.69;5049965;28;20385;-75
2024/01/24 05:44:59;;;;;;;18.93;3.47;;;;;;;17.28;48.17;101524.75;5050725;28;20029;-75
2024/01/24 05:47:25;;;;;;;25.87;3.37;;;;;;;17.53;48.18;101545.22;5050736;28;20049;-75
2024/01/24 05:49:50;;;;;;;27.07;3.27;;;;;;;16.82;49.92;101541.75;5050535;28;20060;-75
2024/01/24 05:52:15;;;;;;;21.57;3.10;;;;;;;17.31;50.36;101566.09;5050611;28;20471;-75
2024/01/24 05:54:41;;;;;;;17.23;2.47;;;;;;;17.10;50.38;101573.66;5051430;28;20025;-76
2024/01/24 05:57:06;;;;;;;24.83;3.67;;;;;;;17.17;50.44;101569.06;5051838;28;20546;-75
2024/01/24 05:59:32;;;;;;;22.30;3.50;;;;;;;17.25;49.68;101577.66;5050291;28;20049;-75
2024/01/24 06:01:57;;;;;;;25.20;4.53;;;;;;;17.29;49.99;101594.31;5050475;28;20047;-75
2024/01/24 06:04:23;;;;;;;22.00;2.90;;;;;;;17.36;48.67;101582.66;5052865;28;20028;-76
2024/01/24 06:06:48;;;;;;;26.40;3.70;;;;;;;17.25;49.64;101580.28;5053959;28;20083;-75
2024/01/24 06:09:14;;;;;;;37.40;3.13;;;;;;;16.98;49.63;101605.66;5055263;28;20036;-75
2024/01/24 06:11:39;;;;;;;29.30;3.23;;;;;;;16.94;48.62;101593.44;5055323;28;20056;-75
2024/01/24 06:14:05;;;;;;;30.00;3.57;;;;;;;17.00;47.91;101609.13;5054374;28;20025;-76
2024/01/24 06:16:30;;;;;;;20.67;3.10;;;;;;;16.07;48.85;101579.53;5051935;28;20029;-74
2024/01/24 06:18:56;;;;;;;19.90;3.30;;;;;;;16.60;48.16;101604.75;5050456;28;20025;-75
2024/01/24 06:21:21;;;;;;;29.97;3.07;;;;;;;17.04;46.86;101602.00;5033724;28;20440;-75
2024/01/24 06:23:46;;;;;;;20.27;3.17;;;;;;;16.52;47.27;101601.44;5039856;28;20021;-75
2024/01/24 06:26:12;;;;;;;25.47;4.73;;;;;;;16.27;47.32;101625.72;5053474;28;20032;-75
2024/01/24 06:28:39;;;;;;;21.07;2.70;;;;;;;16.57;46.90;101618.03;5054130;28;20067;-74
2024/01/24 06:31:04;;;;;;;32.83;4.07;;;;;;;16.90;46.51;101619.03;5054495;28;20021;-74
2024/01/24 06:33:30;;;;;;;29.13;3.87;;;;;;;16.73;46.96;101616.78;5053157;28;20483;-74
2024/01/24 06:35:55;;;;;;;30.20;5.57;;;;;;;17.14;46.49;101643.09;5053283;28;20032;-75
2024/01/24 06:38:21;;;;;;;21.80;3.60;;;;;;;16.54;46.61;101636.56;5049096;28;20028;-75
2024/01/24 06:40:46;;;;;;;20.77;2.23;;;;;;;16.81;46.06;101655.31;5046889;28;20397;-75
2024/01/24 06:43:14;;;;;;;22.33;4.30;;;;;;;16.23;47.66;101666.25;5054999;28;20074;-73
2024/01/24 06:45:40;;;;;;;26.90;5.10;;;;;;;16.39;46.42;101665.03;5049021;28;20056;-74
2024/01/24 06:48:07;;;;;;;24.67;3.27;;;;;;;16.71;46.10;101689.84;5047119;28;20052;-75
2024/01/24 06:50:33;;;;;;;35.83;4.00;;;;;;;16.70;45.58;101677.53;5052703;28;20505;-74
2024/01/24 06:52:59;;;;;;;21.90;3.53;;;;;;;16.37;46.02;101672.09;5053074;28;20063;-75
2024/01/24 06:55:24;;;;;;;27.23;3.10;;;;;;;15.68;47.11;101660.22;5053518;28;20439;-75
2024/01/24 06:57:49;;;;;;;27.70;4.13;;;;;;;15.98;46.17;101653.53;5051464;28;20036;-75
2024/01/24 07:00:15;;;;;;;22.30;3.47;;;;;;;16.31;45.63;101682.78;5051808;28;20384;-74
2024/01/24 07:02:41;;;;;;;23.67;3.17;;;;;;;16.63;45.80;101668.03;5048395;28;20025;-74
2024/01/24 07:05:07;;;;;;;29.83;3.33;;;;;;;16.22;46.15;101682.97;5045446;28;20021;-74
2024/01/24 07:07:32;;;;;;;26.90;4.70;;;;;;;15.78;46.50;101661.78;5049639;28;20025;-74
2024/01/24 07:09:58;;;;;;;15.67;4.47;;;;;;;16.63;44.96;101700.56;5052229;28;20385;-74
2024/01/24 07:12:23;;;;;;;20.00;3.10;;;;;;;16.77;44.69;101665.97;5051294;28;20025;-74
2024/01/24 07:14:48;;;;;;;24.77;4.47;;;;;;;15.66;46.60;101678.72;5052496;28;20289;-74
2024/01/24 07:17:14;;;;;;;25.90;3.90;;;;;;;16.09;45.98;101688.47;5053306;28;20028;-74
2024/01/24 07:19:40;;;;;;;15.60;3.53;;;;;;;15.84;46.45;101692.47;5041086;28;20034;-75
2024/01/24 07:22:05;;;;;;;28.40;3.77;;;;;;;16.90;43.76;101697.41;5047968;28;20128;-74
2024/01/24 07:24:32;;;;;;;24.27;5.47;;;;;;;15.60;46.20;101713.06;5061942;28;20567;-75
2024/01/24 07:26:57;;;;;;;24.83;4.17;;;;;;;15.85;45.28;101731.13;5050429;28;20039;-74
2024/01/24 07:29:23;;;;;;;32.93;4.70;;;;;;;16.39;44.66;101701.97;5051770;28;20028;-75
2024/01/24 07:31:49;;;;;;;26.60;2.90;;;;;;;15.61;45.73;101701.63;5052736;28;20286;-75
2024/01/24 07:34:15;;;;;;;24.63;2.80;;;;;;;16.33;44.89;101728.44;5053078;28;20476;-75
2024/01/24 07:36:41;;;;;;;26.73;3.33;;;;;;;16.26;44.56;101730.34;5051787;28;20469;-75
2024/01/24 07:39:07;;;;;;;11.77;2.60;;;;;;;15.10;46.79;101744.59;5052604;28;20027;-75
2024/01/24 07:41:33;;;;;;;26.00;3.27;;;;;;;15.60;45.41;101768.41;5050651;28;20548;-74
2024/01/24 07:43:59;;;;;;;15.50;3.07;;;;;;;15.61;45.47;101776.28;5051539;28;20112;-74
2024/01/24 07:46:25;;;;;;;17.60;2.80;;;;;;;14.86;46.75;101774.72;5051683;28;20108;-76
2024/01/24 07:48:51;;;;;;;16.87;3.47;;;;;;;16.24;44.52;101781.41;5051348;28;20179;-74
2024/01/24 07:51:16;;;;;;;25.33;4.70;;;;;;;16.06;44.78;101794.03;5052838;28;20029;-74
2024/01/24 07:53:43;;;;;;;22.23;2.90;;;;;;;16.26;44.34;101788.38;5052237;28;20021;-74
2024/01/24 07:56:10;;;;;;;31.20;4.43;;;;;;;15.56;46.21;101769.34;5052176;28;20025;-74
2024/01/24 07:58:39;;;;;;;25.43;3.03;;;;;;;16.10;44.48;101774.63;5049230;28;20017;-74
2024/01/24 08:01:05;;;;;;;29.73;3.17;;;;;;;16.23;44.73;101795.50;5050844;28;20452;-74
2024/01/24 08:03:30;;;;;;;22.50;3.10;;;;;;;15.65;45.82;101807.84;5050407;28;20108;-75
2024/01/24 08:05:56;;;;;;;24.20;3.10;;;;;;;16.20;44.69;101795.56;5051154;28;20551;-74
2024/01/24 08:08:21;;;;;;;28.57;3.60;;;;;;;15.51;46.51;101797.53;5050235;28;20050;-75
2024/01/24 08:10:47;;;;;;;18.87;3.63;;;;;;;16.70;43.93;101816.56;5051890;28;20020;-74
2024/01/24 08:13:13;;;;;;;28.83;3.23;;;;;;;15.99;45.29;101834.59;5051082;28;20151;-75
2024/01/24 08:15:38;;;;;;;15.23;3.00;;;;;;;15.31;46.70;101814.50;5066341;28;20108;-74
2024/01/24 08:18:04;;;;;;;23.73;3.17;;;;;;;15.52;46.35;101822.97;5051995;28;20122;-74
2024/01/24 08:20:29;;;;;;;17.97;3.83;;;;;;;15.34;46.79;101811.81;5050587;28;20160;-73
2024/01/24 08:22:55;;;;;;;28.43;4.27;;;;;;;15.85;45.94;101826.03;5050188;28;20052;-74
2024/01/24 08:25:20;;;;;;;22.30;3.43;;;;;;;15.66;46.13;101826.28;5050832;28;20510;-74
2024/01/24 08:27:45;;;;;;;25.80;4.03;;;;;;;15.97;45.47;101825.81;5048900;28;20036;-74
2024/01/24 08:30:12;;;;;;;29.87;4.30;;;;;;;15.65;46.34;101831.56;5051456;28;20020;-74
2024/01/24 08:32:40;;;;;;;21.13;3.73;;;;;;;16.50;44.60;101859.19;5051561;28;20031;-74
2024/01/24 08:35:06;;;;;;;27.77;3.30;;;;;;;16.04;45.55;101851.19;5051851;28;20095;-74
2024/01/24 08:37:33;;;;;;;21.00;2.97;;;;;;;16.43;44.63;101859.31;5050021;28;20033;-74
2024/01/24 08:39:58;;;;;;;20.70;2.73;;;;;;;16.36;44.66;101860.31;5049930;28;20044;-74
2024/01/24 08:42:24;;;;;;;26.03;3.47;;;;;;;15.83;45.50;101859.47;5051681;28;20031;-74
2024/01/24 08:44:49;;;;;;;13.33;2.87;;;;;;;15.43;46.11;101853.84;5049456;28;20476;-75
2024/01/24 08:47:15;;;;;;;29.57;4.70;;;;;;;15.85;46.16;101857.66;5051814;28;20025;-75
2024/01/24 08:49:40;;;;;;;21.63;3.50;;;;;;;17.13;43.83;101869.41;5047834;28;20436;-74
2024/01/24 08:52:05;;;;;;;17.90;3.03;;;;;;;15.13;46.83;101904.28;5049191;28;20116;-74
2024/01/24 08:54:31;;;;;;;28.57;3.53;;;;;;;16.10;45.43;101898.56;5050386;28;20032;-74
2024/01/24 08:56:56;;;;;;;28.83;4.97;;;;;;;15.99;45.16;101908.41;5051699;28;20108;-74
2024/01/24 08:59:22;;;;;;;24.97;4.60;;;;;;;15.71;46.09;101934.28;5049775;28;20028;-75
2024/01/24 09:01:47;;;;;;;25.90;3.77;;;;;;;16.24;44.81;101905.38;5050248;28;20036;-74
2024/01/24 09:04:13;;;;;;;14.90;2.83;;;;;;;16.67;43.95;101895.84;5051143;28;20025;-74
2024/01/24 09:06:38;;;;;;;20.10;3.37;;;;;;;16.44;44.81;101916.47;5044170;28;20388;-74
2024/01/24 09:09:06;;;;;;;24.00;4.37;;;;;;;15.68;45.89;101907.97;5050840;28;20099;-74
2024/01/24 09:11:31;;;;;;;26.83;3.20;;;;;;;15.68;46.44;101898.28;5045976;28;20068;-74
2024/01/24 09:13:57;;;;;;;18.97;2.90;;;;;;;15.64;46.60;101917.66;5048939;28;20029;-74
2024/01/24 09:16:22;;;;;;;24.67;3.03;;;;;;;16.99;43.70;101913.72;5051284;28;20120;-74
2024/01/24 09:18:47;;;;;;;18.03;3.90;;;;;;;15.84;45.82;101969.25;5048776;28;20525;-74
2024/01/24 09:21:13;;;;;;;23.53;3.80;;;;;;;16.69;44.31;101947.72;5045871;28;20017;-75
2024/01/24 09:23:38;;;;;;;32.73;4.87;;;;;;;16.55;44.61;101952.34;5047491;28;20060;-75
2024/01/24 09:26:04;;;;;;;24.57;3.00;;;;;;;16.15;45.44;101976.75;5048700;28;20049;-74
2024/01/24 09:28:29;;;;;;;19.13;3.03;;;;;;;15.69;46.12;102002.81;5049787;28;20028;-73
2024/01/24 09:30:56;;;;;;;23.30;3.47;;;;;;;16.02;45.41;101976.94;5049059;28;20396;-76
2024/01/24 09:33:21;;;;;;;18.90;3.43;;;;;;;16.38;44.83;101974.59;5042393;28;20067;-74
2024/01/24 09:35:46;;;;;;;28.13;3.33;;;;;;;16.85;44.13;101971.19;5048983;28;20021;-75
2024/01/24 09:38:13;;;;;;;21.50;2.20;;;;;;;16.32;44.93;101974.72;5051022;28;20056;-74
2024/01/24 09:40:39;;;;;;;21.23;2.53;;;;;;;16.39;45.21;101976.34;5044105;28;20025;-75
2024/01/24 09:43:08;;;;;;;28.50;3.93;;;;;;;16.34;45.46;101994.03;5040485;28;20072;-75
2024/01/24 09:45:42;;;;;;;25.60;3.80;;;;;;;16.51;44.75;101995.53;5029588;28;20416;-75
2024/01/24 09:48:09;;;;;;;40.87;5.17;;;;;;;16.14;45.77;102001.38;5041411;28;20115;-75
2024/01/24 09:50:35;;;;;;;23.33;2.90;;;;;;;16.73;45.31;102010.13;5048738;28;20454;-75
2024/01/24 09:53:03;;;;;;;19.30;3.63;;;;;;;15.65;46.44;102018.69;5048196;28;20049;-75
2024/01/24 09:55:32;;;;;;;30.07;3.60;;;;;;;16.53;45.43;102021.00;5045195;28;20029;-75
2024/01/24 09:57:58;;;;;;;28.37;3.13;;;;;;;15.90;45.98;102040.38;5048566;28;20146;-75
2024/01/24 10:00:24;;;;;;;22.43;4.70;;;;;;;15.71;47.15;102040.56;5048426;28;20052;-75
2024/01/24 10:02:49;;;;;;;50.80;6.83;;;;;;;17.17;44.28;102041.06;5045761;28;20051;-76
2024/01/24 10:05:19;;;;;;;23.87;3.40;;;;;;;16.06;46.22;102063.00;5042476;28;20037;-76
2024/01/24 10:07:45;;;;;;;17.07;3.43;;;;;;;16.12;46.05;102054.16;5044039;28;20032;-74
2024/01/24 10:10:12;;;;;;;28.50;3.97;;;;;;;16.20;46.37;102022.41;5045950;28;20032;-76
2024/01/24 10:12:41;;;;;;;24.23;4.33;;;;;;;16.76;44.41;102028.53;5047527;28;20029;-75
2024/01/24 10:15:07;;;;;;;26.00;3.40;;;;;;;16.29;45.18;102053.88;5044956;28;20052;-75
2024/01/24 10:17:33;;;;;;;22.77;3.90;;;;;;;16.51;44.69;102064.13;5039192;28;20058;-75
2024/01/24 10:19:58;;;;;;;26.63;2.97;;;;;;;16.52;44.77;102077.31;5048746;28;20021;-75
2024/01/24 10:22:24;;;;;;;29.23;4.70;;;;;;;17.26;43.60;102080.53;5048821;28;20511;-75
2024/01/24 10:24:50;;;;;;;23.33;3.40;;;;;;;17.77;43.02;102093.63;5046921;28;20032;-76
2024/01/24 10:27:15;;;;;;;30.40;4.07;;;;;;;16.95;43.75;102102.19;5050785;28;20104;-75
2024/01/24 10:29:44;;;;;;;14.13;2.27;;;;;;;15.73;46.74;102091.50;5048643;28;20054;-75
2024/01/24 10:32:09;;;;;;;21.30;2.80;;;;;;;17.26;44.06;102080.53;5043641;28;20022;-75
2024/01/24 10:34:36;;;;;;;24.07;2.93;;;;;;;16.30;45.55;102103.13;5048880;28;20027;-75
2024/01/24 10:37:01;;;;;;;24.10;2.93;;;;;;;16.55;44.79;102097.50;5049155;28;20024;-75
2024/01/24 10:39:29;;;;;;;25.10;5.37;;;;;;;16.09;45.61;102107.78;5049475;28;20078;-75
2024/01/24 10:41:56;;;;;;;10.63;2.30;;;;;;;15.58;46.57;102118.03;5049539;28;20044;-75
2024/01/24 10:44:25;;;;;;;17.67;2.70;;;;;;;16.11;46.50;102129.78;5065194;28;20052;-75
2024/01/24 10:46:51;;;;;;;23.43;3.27;;;;;;;16.46;45.28;102130.19;5049177;28;20032;-75
2024/01/24 10:49:17;;;;;;;30.03;3.33;;;;;;;16.55;45.26;102139.72;5044851;28;20144;-75
2024/01/24 10:51:46;;;;;;;17.20;2.63;;;;;;;17.84;42.94;102138.47;5051902;28;20051;-76
2024/01/24 10:54:14;;;;;;;20.27;3.47;;;;;;;16.84;44.24;102147.22;5051723;28;20075;-76
2024/01/24 10:56:40;;;;;;;23.40;2.73;;;;;;;17.40;43.61;102099.63;5046023;28;20029;-76
2024/01/24 10:59:07;;;;;;;17.07;3.17;;;;;;;16.51;44.50;102141.53;5049016;28;20029;-75
2024/01/24 11:01:34;;;;;;;26.00;3.43;;;;;;;17.33;42.70;102116.50;5047243;28;20029;-75
2024/01/24 11:04:04;;;;;;;18.70;2.77;;;;;;;16.96;43.71;102135.63;5050825;28;20130;-75
2024/01/24 11:06:33;;;;;;;29.53;4.27;;;;;;;15.98;45.58;102149.25;5060004;28;20024;-75
2024/01/24 11:09:20;;;;;;;25.40;3.13;;;;;;;17.00;44.17;102163.72;5053628;28;20473;-75
2024/01/24 11:11:47;;;;;;;30.47;4.60;;;;;;;16.16;45.41;102173.69;5050237;28;20074;-75
2024/01/24 11:14:26;;;;;;;14.57;2.73;;;;;;;17.32;43.05;102149.09;5046865;28;20017;-75